Portada
METAR-TAF:

METAR-TAF

Aeroports :

Rahim Yar Khan, Pakistan

latitud: 28-23-02N, longitud: 70-16-47E, altitud: 83 m

METAR: manca

Hora: 04:51 (23:51 UTC)

Pronòstic

L'informe es va fer fa 2 hores i 6 minuts, a les 21:45 UTC
Pronòstic vàlid del 22 a les 00 UTC al 22 a les 18 UTC
Vent 5 kt del Nord-Est
Visibilitat: 3000 m
Escasses núvols a una alçada de 4000 ft
Núvols disperses a una alçada de 10000 ft
fum
Probabilitat 30% :
Temporalment
l' 22 a les 01 UTC al 22 a les 05 UTC
Vent 10 kt del Nord amb ràfegues de 20 kt
Visibilitat: 2000 m
Núvols disperses a una alçada de 4000 ft
Núvols disperses a una alçada de 10000 ft
fum

TAF: OPRK 212145Z 2200/2218 05005KT 3000 FU FEW040 SCT100 TN12/2201Z TX24/2210Z PROB30 TEMPO 2201/2205 36010G20KT 2000 FU SCT040 SCT100

Observacions i pronòstics meteorològics de més de 4000 aeroports (METAR i TAF).

Les estacions disponibles són els punts grocs i vermells al mapa.

Posi el ratolí al punt desitjat per veure el nom de l'estació.

Feu clic per veure les observacions i els pronòstics meteorològics.

Per canviar el mapa: feu clic els botons verds amb una creu de color negre per apropar; al botó verd amb un guió per allunyar la imatge; o en les fletxes verdes per a mapes adjacents.


METAR-TAF: